Time;durP1;ratioP1;P1;durP2;ratioP2;P2;SDS_P1;SDS_P2;PMS_P1;PMS_P2;Temp;Humidity;BMP_temperature;BMP_pressure;BME280_temperature;BME280_humidity;BME280_pressure;Samples;Min_cycle;Max_cycle;Signal;HPM_P1;HPM_P2
2022/12/01 00:00:45;;;;;;;157.88;64.22;;;3.00;99.90;;;;;;5060473;28;20044;-79
2022/12/01 00:03:11;;;;;;;169.57;69.65;;;3.00;99.90;;;;;;5062412;28;20032;-79
2022/12/01 00:05:37;;;;;;;142.02;59.90;;;3.00;99.90;;;;;;5068454;28;20389;-80
2022/12/01 00:08:04;;;;;;;152.40;65.55;;;3.00;99.90;;;;;;5063629;28;20037;-80
2022/12/01 00:10:30;;;;;;;156.55;64.38;;;3.00;99.90;;;;;;5061167;28;20073;-80
2022/12/01 00:12:57;;;;;;;149.18;62.55;;;3.00;99.90;;;;;;5066387;28;20029;-79
2022/12/01 00:15:34;;;;;;;170.48;67.30;;;2.90;99.90;;;;;;5059604;28;20025;-78
2022/12/01 00:18:00;;;;;;;142.98;61.88;;;3.00;99.90;;;;;;5057416;28;20123;-79
2022/12/01 00:20:27;;;;;;;149.05;60.35;;;2.90;99.90;;;;;;5062819;28;20103;-79
2022/12/01 00:22:52;;;;;;;150.95;63.33;;;2.90;99.90;;;;;;5060525;28;20036;-78
2022/12/01 00:25:20;;;;;;;142.57;58.80;;;2.90;99.90;;;;;;5067561;28;20470;-78
2022/12/01 00:27:50;;;;;;;163.30;64.68;;;2.90;99.90;;;;;;5057283;28;20512;-79
2022/12/01 00:30:17;;;;;;;142.75;61.78;;;2.90;99.90;;;;;;5061266;28;20036;-79
2022/12/01 00:32:42;;;;;;;145.82;59.00;;;2.90;99.90;;;;;;5057392;28;20029;-79
2022/12/01 00:35:08;;;;;;;150.10;60.85;;;2.90;99.90;;;;;;5065878;28;20043;-78
2022/12/01 00:37:35;;;;;;;142.55;58.40;;;3.00;99.90;;;;;;5061112;28;20470;-78
2022/12/01 00:40:00;;;;;;;142.00;60.72;;;3.00;99.90;;;;;;5057360;28;20048;-78
2022/12/01 00:42:27;;;;;;;136.60;57.30;;;3.00;99.90;;;;;;5061845;28;20028;-78
2022/12/01 00:44:52;;;;;;;137.77;58.70;;;3.00;99.90;;;;;;5060014;28;20071;-79
2022/12/01 00:47:18;;;;;;;141.55;58.55;;;3.00;99.90;;;;;;5059708;28;20048;-79
2022/12/01 00:49:46;;;;;;;130.93;54.50;;;3.00;99.90;;;;;;5063439;28;20099;-79
2022/12/01 00:52:14;;;;;;;131.60;58.05;;;3.00;99.90;;;;;;5060720;28;20032;-79
2022/12/01 00:54:40;;;;;;;140.18;59.83;;;3.00;99.90;;;;;;5057900;28;20529;-79
2022/12/01 00:57:06;;;;;;;146.60;59.05;;;3.00;99.90;;;;;;5055668;28;20601;-79
2022/12/01 00:59:32;;;;;;;143.90;59.38;;;3.10;99.90;;;;;;5065079;28;20033;-79
2022/12/01 01:01:57;;;;;;;138.50;59.08;;;3.10;99.90;;;;;;5061526;28;20029;-79
2022/12/01 01:04:23;;;;;;;163.68;63.78;;;3.10;99.90;;;;;;5061541;28;20044;-79
2022/12/01 01:06:49;;;;;;;168.43;67.25;;;3.10;99.90;;;;;;5054457;28;20033;-79
2022/12/01 01:09:15;;;;;;;206.80;78.55;;;3.10;99.90;;;;;;5055333;28;20090;-79
2022/12/01 01:11:41;;;;;;;202.73;77.45;;;3.10;99.90;;;;;;5060885;28;20028;-79
2022/12/01 01:14:07;;;;;;;193.13;77.13;;;3.10;99.90;;;;;;5061523;28;20103;-79
2022/12/01 01:16:34;;;;;;;184.75;69.75;;;3.10;99.90;;;;;;5063235;28;20029;-77
2022/12/01 01:19:00;;;;;;;184.77;71.13;;;3.10;99.90;;;;;;5062915;28;20036;-79
2022/12/01 01:21:26;;;;;;;197.60;76.82;;;3.10;99.90;;;;;;5064950;28;20112;-79
2022/12/01 01:23:52;;;;;;;193.10;71.88;;;3.00;99.90;;;;;;5059698;28;20066;-79
2022/12/01 01:26:22;;;;;;;186.07;69.18;;;3.00;99.90;;;;;;5060004;28;20024;-79
2022/12/01 01:28:48;;;;;;;196.35;71.28;;;3.00;99.90;;;;;;5057387;28;20029;-78
2022/12/01 01:31:17;;;;;;;191.88;71.40;;;3.00;99.90;;;;;;5057237;28;20186;-79
2022/12/01 01:33:43;;;;;;;197.90;71.97;;;3.00;99.90;;;;;;5065559;28;20048;-79
2022/12/01 01:36:09;;;;;;;200.45;73.70;;;3.00;99.90;;;;;;5064133;28;20039;-79
2022/12/01 01:38:35;;;;;;;205.40;73.50;;;3.00;99.90;;;;;;5060087;28;20025;-79
2022/12/01 01:41:02;;;;;;;189.63;69.90;;;3.00;99.90;;;;;;5062431;28;20397;-79
2022/12/01 01:43:47;;;;;;;204.02;70.80;;;3.00;99.90;;;;;;5054313;28;20033;-79
2022/12/01 01:46:28;;;;;;;202.60;72.53;;;3.00;99.90;;;;;;5061124;28;20024;-78
2022/12/01 01:48:59;;;;;;;211.98;72.18;;;2.90;99.90;;;;;;5059386;28;20036;-79
2022/12/01 01:51:52;;;;;;;214.30;72.85;;;3.00;99.90;;;;;;5058439;28;20054;-79
2022/12/01 01:54:24;;;;;;;204.52;67.80;;;2.90;99.90;;;;;;5064222;28;20028;-78
2022/12/01 01:56:51;;;;;;;197.13;72.40;;;2.90;99.90;;;;;;5065530;28;20065;-79
2022/12/01 01:59:23;;;;;;;191.77;64.05;;;2.90;99.90;;;;;;5061154;28;20266;-79
2022/12/01 02:02:00;;;;;;;182.50;67.55;;;2.90;99.90;;;;;;5060815;28;20036;-79
2022/12/01 02:04:28;;;;;;;189.75;66.07;;;2.90;99.90;;;;;;5054229;28;20044;-79
2022/12/01 02:06:54;;;;;;;194.20;69.85;;;2.90;99.90;;;;;;5061334;28;20052;-78
2022/12/01 02:09:19;;;;;;;206.05;71.57;;;2.90;99.90;;;;;;5059707;28;20021;-79
2022/12/01 02:12:10;;;;;;;210.93;72.88;;;2.90;99.90;;;;;;5058104;28;20370;-79
2022/12/01 02:14:53;;;;;;;196.65;70.95;;;2.90;99.90;;;;;;5054279;28;20037;-79
2022/12/01 02:17:28;;;;;;;204.52;70.18;;;2.90;99.90;;;;;;5059048;28;20564;-79
2022/12/01 02:19:59;;;;;;;218.53;74.57;;;2.90;99.90;;;;;;5060708;28;20020;-78
2022/12/01 02:22:45;;;;;;;221.65;74.93;;;2.80;99.90;;;;;;5055073;28;20111;-79
2022/12/01 02:25:32;;;;;;;205.15;69.10;;;2.90;99.90;;;;;;5056983;28;20028;-79
2022/12/01 02:28:16;;;;;;;191.90;70.18;;;2.90;99.90;;;;;;5056408;28;20033;-80
2022/12/01 02:30:54;;;;;;;189.82;66.22;;;2.90;99.90;;;;;;5053916;28;20043;-79
2022/12/01 02:33:33;;;;;;;249.73;81.25;;;2.90;99.90;;;;;;5055644;28;20473;-79
2022/12/01 02:36:17;;;;;;;253.48;84.70;;;2.90;99.90;;;;;;5051961;28;20037;-79
2022/12/01 02:38:57;;;;;;;221.10;73.15;;;2.80;99.90;;;;;;5057702;28;20068;-79
2022/12/01 02:41:39;;;;;;;266.10;86.75;;;2.80;99.90;;;;;;5057908;28;20494;-79
2022/12/01 02:44:14;;;;;;;251.13;81.72;;;2.80;99.90;;;;;;5054325;28;20036;-79
2022/12/01 02:46:46;;;;;;;256.77;81.47;;;2.90;99.90;;;;;;5058333;28;20040;-79
2022/12/01 02:49:27;;;;;;;262.45;83.60;;;2.80;99.90;;;;;;5055942;28;20052;-79
2022/12/01 02:51:54;;;;;;;269.90;85.43;;;2.80;99.90;;;;;;5052835;28;20036;-79
2022/12/01 02:54:23;;;;;;;259.08;86.35;;;2.80;99.90;;;;;;5054545;28;20057;-79
2022/12/01 02:56:52;;;;;;;254.55;84.65;;;2.80;99.90;;;;;;5059534;28;20032;-79
2022/12/01 02:59:17;;;;;;;221.20;74.93;;;2.80;99.90;;;;;;5053521;28;20057;-79
2022/12/01 03:02:08;;;;;;;233.57;79.55;;;2.70;99.90;;;;;;5052552;28;20056;-79
2022/12/01 03:05:05;;;;;;;216.27;73.35;;;2.70;99.90;;;;;;5062087;28;20064;-79
2022/12/01 03:08:01;;;;;;;219.18;72.72;;;2.70;99.90;;;;;;5041202;28;20040;-79
2022/12/01 03:10:47;;;;;;;260.05;79.75;;;2.70;99.90;;;;;;5060152;28;20021;-79
2022/12/01 03:13:38;;;;;;;270.25;83.22;;;2.70;99.90;;;;;;5056311;28;20032;-79
2022/12/01 03:16:17;;;;;;;240.95;80.40;;;2.60;99.90;;;;;;5059432;28;20033;-80
2022/12/01 03:18:45;;;;;;;213.68;74.05;;;2.60;99.90;;;;;;5053009;28;20027;-80
2022/12/01 03:21:23;;;;;;;238.05;80.20;;;2.60;99.90;;;;;;5058502;28;20017;-79
2022/12/01 03:23:59;;;;;;;243.80;79.45;;;2.60;99.90;;;;;;5052996;28;20104;-79
2022/12/01 03:26:29;;;;;;;243.50;74.90;;;2.60;99.90;;;;;;5052395;28;20040;-80
2022/12/01 03:29:02;;;;;;;255.40;80.05;;;2.60;99.90;;;;;;5052131;28;20108;-79
2022/12/01 03:31:33;;;;;;;252.63;82.53;;;2.60;99.90;;;;;;5055994;28;20440;-80
2022/12/01 03:34:08;;;;;;;274.27;85.95;;;2.60;99.90;;;;;;5048806;28;20029;-79
2022/12/01 03:36:53;;;;;;;260.48;83.13;;;2.60;99.90;;;;;;5056484;28;20032;-79
2022/12/01 03:39:22;;;;;;;257.23;81.65;;;2.60;99.90;;;;;;5054296;28;20037;-79
2022/12/01 03:42:00;;;;;;;270.33;86.05;;;2.60;99.90;;;;;;5053734;28;20032;-79
2022/12/01 03:44:32;;;;;;;281.90;85.78;;;2.70;99.90;;;;;;5055267;28;21685;-79
2022/12/01 03:47:09;;;;;;;240.98;76.53;;;2.60;99.90;;;;;;5059922;28;20142;-79
2022/12/01 03:49:36;;;;;;;242.43;77.85;;;2.60;99.90;;;;;;5062568;28;20025;-79
2022/12/01 03:52:37;;;;;;;233.30;77.63;;;2.70;99.90;;;;;;5056027;28;20373;-80
2022/12/01 03:55:34;;;;;;;249.35;73.15;;;2.70;99.90;;;;;;5043559;28;20555;-79
2022/12/01 03:58:24;;;;;;;260.60;81.78;;;2.70;99.90;;;;;;5061101;28;20139;-79
2022/12/01 04:00:54;;;;;;;290.48;90.85;;;2.70;99.90;;;;;;5062167;28;20028;-79
2022/12/01 04:03:23;;;;;;;242.55;77.90;;;2.70;99.90;;;;;;5058912;28;20508;-79
2022/12/01 04:05:50;;;;;;;272.10;84.38;;;2.60;99.90;;;;;;5063835;28;20028;-79
2022/12/01 04:08:16;;;;;;;261.48;81.30;;;2.60;99.90;;;;;;5060501;28;20029;-80
2022/12/01 04:10:41;;;;;;;250.80;79.03;;;2.60;99.90;;;;;;5064415;28;20420;-79
2022/12/01 04:13:14;;;;;;;251.68;78.40;;;2.60;99.90;;;;;;5063325;28;20029;-79
2022/12/01 04:15:40;;;;;;;246.38;75.90;;;2.70;99.90;;;;;;5062248;28;20029;-78
2022/12/01 04:18:06;;;;;;;250.85;77.70;;;2.60;99.90;;;;;;5053424;28;20389;-79
2022/12/01 04:20:31;;;;;;;259.98;77.93;;;2.60;99.90;;;;;;5057113;28;20035;-78
2022/12/01 04:22:57;;;;;;;230.02;74.03;;;2.60;99.90;;;;;;5058400;28;20041;-79
2022/12/01 04:25:22;;;;;;;262.02;83.75;;;2.60;99.90;;;;;;5058354;28;20081;-79
2022/12/01 04:27:48;;;;;;;270.52;85.28;;;2.60;99.90;;;;;;5063450;28;20064;-80
2022/12/01 04:30:14;;;;;;;250.23;80.70;;;2.60;99.90;;;;;;5058992;28;20048;-79
2022/12/01 04:32:41;;;;;;;273.70;87.78;;;2.60;99.90;;;;;;5055437;28;20025;-79
2022/12/01 04:35:08;;;;;;;271.73;82.22;;;2.60;99.90;;;;;;5058753;28;20470;-79
2022/12/01 04:37:35;;;;;;;285.20;86.32;;;2.60;99.90;;;;;;5056084;28;20021;-79
2022/12/01 04:40:00;;;;;;;303.10;92.22;;;2.60;99.90;;;;;;5056283;28;20085;-79
2022/12/01 04:42:26;;;;;;;270.88;85.32;;;2.60;99.90;;;;;;5059355;28;20029;-79
2022/12/01 04:44:53;;;;;;;280.88;88.22;;;2.60;99.90;;;;;;5057784;28;20044;-78
2022/12/01 04:47:18;;;;;;;274.13;87.82;;;2.60;99.90;;;;;;5061253;28;20040;-79
2022/12/01 04:49:44;;;;;;;297.45;91.28;;;2.60;99.90;;;;;;5059835;28;20031;-79
2022/12/01 04:52:09;;;;;;;281.52;91.35;;;2.50;99.90;;;;;;5059465;28;20032;-79
2022/12/01 04:54:35;;;;;;;285.88;87.25;;;2.50;99.90;;;;;;5062969;28;20031;-79
2022/12/01 04:57:01;;;;;;;323.30;90.40;;;2.50;99.90;;;;;;5064165;28;20029;-79
2022/12/01 04:59:26;;;;;;;308.30;88.43;;;2.50;99.90;;;;;;5061517;28;20405;-79
2022/12/01 05:01:52;;;;;;;272.05;82.85;;;2.50;99.90;;;;;;5057078;28;20023;-79
2022/12/01 05:04:18;;;;;;;288.13;86.68;;;2.50;99.90;;;;;;5058583;28;20334;-79
2022/12/01 05:06:43;;;;;;;269.63;83.50;;;2.50;99.90;;;;;;5054180;28;20060;-79
2022/12/01 05:09:13;;;;;;;274.50;86.03;;;2.50;99.90;;;;;;5059001;28;20029;-79
2022/12/01 05:11:38;;;;;;;276.45;86.88;;;2.50;99.90;;;;;;5059290;28;20600;-79
2022/12/01 05:14:05;;;;;;;317.52;92.20;;;2.50;99.90;;;;;;5056832;28;20107;-79
2022/12/01 05:16:31;;;;;;;252.48;79.93;;;2.50;99.90;;;;;;5063159;28;20366;-79
2022/12/01 05:21:46;;;;;;;298.27;87.40;;;2.50;99.90;;;;;;5065199;28;20032;-79
2022/12/01 05:24:12;;;;;;;297.92;86.68;;;2.50;99.90;;;;;;5060898;28;20405;-79
2022/12/01 05:26:38;;;;;;;291.83;83.80;;;2.50;99.90;;;;;;5061703;28;20032;-79
2022/12/01 05:29:04;;;;;;;267.38;81.95;;;2.50;99.90;;;;;;5063408;28;20040;-78
2022/12/01 05:31:30;;;;;;;299.42;89.43;;;2.50;99.90;;;;;;5056315;28;20028;-79
2022/12/01 05:33:56;;;;;;;253.68;81.65;;;2.50;99.90;;;;;;5060392;28;20032;-79
2022/12/01 05:36:22;;;;;;;244.07;76.88;;;2.50;99.90;;;;;;5061995;28;20025;-79
2022/12/01 05:38:47;;;;;;;272.83;80.93;;;2.50;99.90;;;;;;5053619;28;20017;-79
2022/12/01 05:41:14;;;;;;;287.17;86.93;;;2.50;99.90;;;;;;5062911;28;20028;-78
2022/12/01 05:43:40;;;;;;;257.15;81.10;;;2.50;99.90;;;;;;5061910;28;20059;-79
2022/12/01 05:46:05;;;;;;;267.77;83.30;;;2.50;99.90;;;;;;5057306;28;20024;-79
2022/12/01 05:48:31;;;;;;;246.10;77.88;;;2.50;99.90;;;;;;5063519;28;20119;-79
2022/12/01 05:50:56;;;;;;;261.80;80.20;;;2.50;99.90;;;;;;5063812;28;20025;-79
2022/12/01 05:53:22;;;;;;;242.38;76.13;;;2.50;99.90;;;;;;5058198;28;20271;-79
2022/12/01 05:55:52;;;;;;;247.70;76.85;;;2.50;99.90;;;;;;5058175;28;20140;-78
2022/12/01 05:58:18;;;;;;;250.15;79.60;;;2.50;99.90;;;;;;5057851;28;20067;-79
2022/12/01 06:00:44;;;;;;;256.25;76.45;;;2.50;99.90;;;;;;5055775;28;20029;-79
2022/12/01 06:03:09;;;;;;;248.75;76.40;;;2.50;99.90;;;;;;5058840;28;20068;-79
2022/12/01 06:05:35;;;;;;;278.20;87.28;;;2.50;99.90;;;;;;5047646;28;20032;-79
2022/12/01 06:08:01;;;;;;;263.10;85.90;;;2.50;99.90;;;;;;5059881;28;20028;-79
2022/12/01 06:10:26;;;;;;;263.33;84.05;;;2.50;99.90;;;;;;5062444;28;20028;-79
2022/12/01 06:12:52;;;;;;;284.63;87.65;;;2.50;99.90;;;;;;5057686;28;20033;-79
2022/12/01 06:15:18;;;;;;;245.52;78.30;;;2.40;99.90;;;;;;5058813;28;20028;-79
2022/12/01 06:17:43;;;;;;;248.35;77.97;;;2.50;99.90;;;;;;5061879;28;20051;-79
2022/12/01 06:20:10;;;;;;;256.58;82.20;;;2.40;99.90;;;;;;5057563;28;20029;-79
2022/12/01 06:22:36;;;;;;;278.90;81.72;;;2.40;99.90;;;;;;5054128;28;20087;-79
2022/12/01 06:25:02;;;;;;;277.60;86.38;;;2.40;99.90;;;;;;5063794;28;20513;-79
2022/12/01 06:27:27;;;;;;;241.60;74.88;;;2.40;99.90;;;;;;5055655;28;20029;-79
2022/12/01 06:29:53;;;;;;;259.65;82.30;;;2.40;99.90;;;;;;5054308;28;20086;-79
2022/12/01 06:32:18;;;;;;;255.27;78.72;;;2.40;99.90;;;;;;5055851;28;20484;-79
2022/12/01 06:34:44;;;;;;;275.10;80.75;;;2.40;99.90;;;;;;5054452;28;20494;-79
2022/12/01 06:37:10;;;;;;;255.15;79.10;;;2.40;99.90;;;;;;5057617;28;20550;-79
2022/12/01 06:39:36;;;;;;;280.77;85.90;;;2.40;99.90;;;;;;5059919;28;20036;-80
2022/12/01 06:42:02;;;;;;;252.43;78.00;;;2.40;99.90;;;;;;5057778;28;20232;-79
2022/12/01 06:44:28;;;;;;;277.63;88.38;;;2.40;99.90;;;;;;5060063;28;20617;-79
2022/12/01 06:46:56;;;;;;;245.27;79.40;;;2.40;99.90;;;;;;5052761;28;20512;-78
2022/12/01 06:49:21;;;;;;;260.08;78.93;;;2.40;99.90;;;;;;5052848;28;20028;-80
2022/12/01 06:51:49;;;;;;;263.85;80.03;;;2.40;99.90;;;;;;5060023;28;20375;-80
2022/12/01 06:54:16;;;;;;;264.50;81.07;;;2.40;99.90;;;;;;5058848;28;20024;-79
2022/12/01 06:56:42;;;;;;;256.25;78.70;;;2.40;99.90;;;;;;5059701;28;20075;-80
2022/12/01 06:59:08;;;;;;;257.05;81.32;;;2.40;99.90;;;;;;5054698;28;20048;-79
2022/12/01 07:01:34;;;;;;;268.83;80.85;;;2.40;99.90;;;;;;5060571;28;20031;-81
2022/12/01 07:03:59;;;;;;;261.77;77.57;;;2.40;99.90;;;;;;5052192;28;20121;-81
2022/12/01 07:06:25;;;;;;;261.02;81.72;;;2.40;99.90;;;;;;5056735;28;20028;-81
2022/12/01 07:08:51;;;;;;;263.00;79.15;;;2.40;99.90;;;;;;5065989;28;20032;-81
2022/12/01 07:11:17;;;;;;;239.73;76.07;;;2.40;99.90;;;;;;5062743;28;20550;-81
2022/12/01 07:13:48;;;;;;;267.00;80.55;;;2.30;99.90;;;;;;5056683;28;20072;-79
2022/12/01 07:16:13;;;;;;;260.92;79.53;;;2.40;99.90;;;;;;5059047;28;20393;-79
2022/12/01 07:18:39;;;;;;;289.42;79.78;;;2.30;99.90;;;;;;5054520;28;20029;-78
2022/12/01 07:21:09;;;;;;;255.20;74.80;;;2.30;99.90;;;;;;5060011;28;20028;-79
2022/12/01 07:23:34;;;;;;;266.58;81.32;;;2.40;99.90;;;;;;5055561;28;20131;-79
2022/12/01 07:26:05;;;;;;;226.80;76.03;;;2.40;99.90;;;;;;5059963;28;20107;-79
2022/12/01 07:28:30;;;;;;;264.58;79.50;;;2.40;99.90;;;;;;5063964;28;20021;-79
2022/12/01 07:31:06;;;;;;;245.82;76.28;;;2.30;99.90;;;;;;5069010;28;20132;-78
2022/12/01 07:33:32;;;;;;;258.52;79.18;;;2.30;99.90;;;;;;5064931;28;20020;-79
2022/12/01 07:35:58;;;;;;;247.13;80.65;;;2.30;99.90;;;;;;5062595;28;20154;-79
2022/12/01 07:38:24;;;;;;;271.77;81.15;;;2.30;99.90;;;;;;5060619;28;20044;-79
2022/12/01 07:40:50;;;;;;;271.33;78.10;;;2.30;99.90;;;;;;5062605;28;20547;-79
2022/12/01 07:43:15;;;;;;;256.35;77.03;;;2.30;99.90;;;;;;5064307;28;20042;-79
2022/12/01 07:45:41;;;;;;;258.50;77.28;;;2.30;99.90;;;;;;5064518;28;20485;-79
2022/12/01 07:48:06;;;;;;;258.63;76.18;;;2.30;99.90;;;;;;5062380;28;20157;-79
2022/12/01 07:50:32;;;;;;;273.25;80.25;;;2.30;99.90;;;;;;5061281;28;20044;-79
2022/12/01 07:52:59;;;;;;;246.35;76.18;;;2.30;99.90;;;;;;5064834;28;20060;-79
2022/12/01 07:55:24;;;;;;;285.08;81.60;;;2.30;99.90;;;;;;5064419;28;20482;-79
2022/12/01 07:57:50;;;;;;;271.52;78.47;;;2.40;99.90;;;;;;5064808;28;20106;-78
2022/12/01 08:00:16;;;;;;;247.68;74.90;;;2.30;99.90;;;;;;5063574;28;20039;-78
2022/12/01 08:02:41;;;;;;;277.00;81.50;;;2.30;99.90;;;;;;5058501;28;20032;-79
2022/12/01 08:05:07;;;;;;;272.13;81.40;;;2.40;99.90;;;;;;5056392;28;20119;-78
2022/12/01 08:07:33;;;;;;;287.25;88.20;;;2.30;99.90;;;;;;5059052;28;20031;-79
2022/12/01 08:09:58;;;;;;;313.88;85.63;;;2.40;99.90;;;;;;5062227;28;20067;-78
2022/12/01 08:12:24;;;;;;;266.17;80.05;;;2.30;99.90;;;;;;5066374;28;20024;-79
2022/12/01 08:14:50;;;;;;;243.75;73.03;;;2.30;99.90;;;;;;5061158;28;20020;-78
2022/12/01 08:17:15;;;;;;;234.45;72.38;;;2.30;99.90;;;;;;5059777;28;20033;-78
2022/12/01 08:19:41;;;;;;;230.75;69.47;;;2.30;99.90;;;;;;5064153;28;20052;-78
2022/12/01 08:22:07;;;;;;;270.33;79.18;;;2.30;99.90;;;;;;5061776;28;20071;-78
2022/12/01 08:24:32;;;;;;;307.80;86.68;;;2.30;99.90;;;;;;5060006;28;20098;-79
2022/12/01 08:26:58;;;;;;;278.17;81.45;;;2.30;99.90;;;;;;5065776;28;20028;-79
2022/12/01 08:29:23;;;;;;;270.55;81.32;;;2.30;99.90;;;;;;5064256;28;20041;-79
2022/12/01 08:31:49;;;;;;;272.48;82.53;;;2.30;99.90;;;;;;5055941;28;20067;-78
2022/12/01 08:34:15;;;;;;;292.65;88.80;;;2.30;99.90;;;;;;5060225;28;20025;-79
2022/12/01 08:36:40;;;;;;;298.40;89.63;;;2.30;99.90;;;;;;5052416;28;20029;-78
2022/12/01 08:39:07;;;;;;;294.08;84.20;;;2.30;99.90;;;;;;5060327;28;20021;-79
2022/12/01 08:41:33;;;;;;;269.02;80.70;;;2.30;99.90;;;;;;5063186;28;20105;-79
2022/12/01 08:44:02;;;;;;;252.73;76.70;;;2.30;99.90;;;;;;5059339;28;20124;-78
2022/12/01 08:46:33;;;;;;;241.70;75.53;;;2.30;99.90;;;;;;5059227;28;20048;-79
2022/12/01 08:48:58;;;;;;;248.23;73.22;;;2.30;99.90;;;;;;5061056;28;20032;-79
2022/12/01 08:51:25;;;;;;;234.15;74.15;;;2.30;99.90;;;;;;5060606;28;20025;-78
2022/12/01 08:53:51;;;;;;;248.73;75.40;;;2.30;99.90;;;;;;5054695;28;20528;-79
2022/12/01 08:56:26;;;;;;;241.85;77.28;;;2.30;99.90;;;;;;5064389;28;20103;-79
2022/12/01 08:58:53;;;;;;;253.07;77.40;;;2.40;99.90;;;;;;5063342;28;20076;-79
2022/12/01 09:01:19;;;;;;;234.57;73.75;;;2.40;99.90;;;;;;5057462;28;20032;-78
2022/12/01 09:03:45;;;;;;;234.02;72.13;;;2.40;99.90;;;;;;5057625;28;20049;-79
2022/12/01 09:06:14;;;;;;;236.05;72.95;;;2.30;99.90;;;;;;5059366;28;20381;-79
2022/12/01 09:08:40;;;;;;;243.60;72.80;;;2.40;99.90;;;;;;5061114;28;20067;-78
2022/12/01 09:11:10;;;;;;;252.50;77.15;;;2.30;99.90;;;;;;5057956;28;20025;-78
2022/12/01 09:13:38;;;;;;;246.93;72.93;;;2.40;99.90;;;;;;5062559;28;20033;-79
2022/12/01 09:16:12;;;;;;;269.55;81.00;;;2.40;99.90;;;;;;5060743;28;20511;-79
2022/12/01 09:18:39;;;;;;;239.32;72.95;;;2.40;99.90;;;;;;5056229;28;20033;-79
2022/12/01 09:21:23;;;;;;;255.60;77.80;;;2.30;99.90;;;;;;5059112;28;20086;-79
2022/12/01 09:23:49;;;;;;;228.95;71.57;;;2.30;99.90;;;;;;5060854;28;20079;-79
2022/12/01 09:26:17;;;;;;;261.25;77.05;;;2.30;99.90;;;;;;5058250;28;20118;-79
2022/12/01 09:28:47;;;;;;;257.65;77.72;;;2.30;99.90;;;;;;5057343;28;20024;-79
2022/12/01 09:31:14;;;;;;;231.90;71.13;;;2.40;99.90;;;;;;5057129;28;20029;-79
2022/12/01 09:33:40;;;;;;;239.38;71.20;;;2.40;99.90;;;;;;5057576;28;20037;-78
2022/12/01 09:36:07;;;;;;;269.60;78.80;;;2.40;99.90;;;;;;5055503;28;20385;-79
2022/12/01 09:38:34;;;;;;;261.30;77.20;;;2.40;99.90;;;;;;5055950;28;20440;-79
2022/12/01 09:41:04;;;;;;;259.77;80.47;;;2.40;99.90;;;;;;5058030;28;20033;-79
2022/12/01 09:43:39;;;;;;;267.27;80.32;;;2.30;99.90;;;;;;5059482;28;20342;-79
2022/12/01 09:46:08;;;;;;;279.05;81.07;;;2.40;99.90;;;;;;5057392;28;20504;-79
2022/12/01 09:48:42;;;;;;;254.65;76.25;;;2.40;99.90;;;;;;5060988;28;20062;-79
2022/12/01 09:51:16;;;;;;;239.40;74.25;;;2.40;99.90;;;;;;5060146;28;20028;-79
2022/12/01 09:53:43;;;;;;;263.17;79.05;;;2.40;99.90;;;;;;5057628;28;20037;-79
2022/12/01 09:56:30;;;;;;;245.77;76.90;;;2.40;99.90;;;;;;5058735;28;20485;-79
2022/12/01 09:59:00;;;;;;;278.27;83.78;;;2.40;99.90;;;;;;5059308;28;20051;-79
2022/12/01 10:01:37;;;;;;;249.25;74.03;;;2.40;99.90;;;;;;5058623;28;20035;-79
2022/12/01 10:04:43;;;;;;;254.60;75.85;;;2.40;99.90;;;;;;5050557;28;20039;-79
2022/12/01 10:07:14;;;;;;;288.30;82.78;;;2.40;99.90;;;;;;5053171;28;20058;-77
2022/12/01 10:09:56;;;;;;;266.27;75.40;;;2.40;99.90;;;;;;5058749;28;20075;-78
2022/12/01 10:12:27;;;;;;;282.77;81.32;;;2.40;99.90;;;;;;5054895;28;20032;-79
2022/12/01 10:15:00;;;;;;;251.63;74.85;;;2.40;99.90;;;;;;5057476;28;20052;-79
2022/12/01 10:17:35;;;;;;;284.05;83.28;;;2.40;99.90;;;;;;5057860;28;20017;-79
2022/12/01 10:20:19;;;;;;;231.20;72.15;;;2.40;99.90;;;;;;5057981;28;20025;-78
2022/12/01 10:23:15;;;;;;;295.42;86.55;;;2.40;99.90;;;;;;5054675;28;20047;-79
2022/12/01 10:25:44;;;;;;;264.17;79.07;;;2.40;99.90;;;;;;5053813;28;20075;-79
2022/12/01 10:28:28;;;;;;;288.95;83.45;;;2.40;99.90;;;;;;5056891;28;20027;-79
2022/12/01 10:31:01;;;;;;;272.15;78.47;;;2.30;99.90;;;;;;5056465;28;20032;-78
2022/12/01 10:33:41;;;;;;;244.63;73.88;;;2.30;99.90;;;;;;5055116;28;20036;-79
2022/12/01 10:36:11;;;;;;;275.25;78.03;;;2.40;99.90;;;;;;5059741;28;20494;-79
2022/12/01 10:38:38;;;;;;;311.27;90.65;;;2.40;99.90;;;;;;5055645;28;20047;-79
2022/12/01 10:41:08;;;;;;;272.95;79.28;;;2.40;99.90;;;;;;5057765;28;20119;-79
2022/12/01 10:43:42;;;;;;;291.50;83.13;;;2.40;99.90;;;;;;5056427;28;20044;-79
2022/12/01 10:46:37;;;;;;;291.50;83.57;;;2.40;99.90;;;;;;5059743;28;20033;-79
2022/12/01 10:49:12;;;;;;;248.65;75.32;;;2.40;99.90;;;;;;5059292;28;20547;-78
2022/12/01 10:51:54;;;;;;;252.00;75.00;;;2.50;99.90;;;;;;5058966;28;20740;-79
2022/12/01 10:54:22;;;;;;;228.43;69.82;;;2.50;99.90;;;;;;5051990;28;20295;-79
2022/12/01 10:56:53;;;;;;;277.85;83.13;;;2.50;99.90;;;;;;5060641;28;20032;-80
2022/12/01 10:59:30;;;;;;;248.07;78.32;;;2.50;99.90;;;;;;5059194;28;20128;-79
2022/12/01 11:01:57;;;;;;;232.35;74.50;;;2.50;99.90;;;;;;5058334;28;20386;-79
2022/12/01 11:04:44;;;;;;;220.80;71.72;;;2.50;99.90;;;;;;5058990;28;20515;-79
2022/12/01 11:07:23;;;;;;;236.18;76.47;;;2.50;99.90;;;;;;5056501;28;20046;-78
2022/12/01 11:10:15;;;;;;;260.45;80.05;;;2.50;99.90;;;;;;5054077;28;20067;-79
2022/12/01 11:12:43;;;;;;;287.35;87.85;;;2.50;99.90;;;;;;5058449;28;20036;-78
2022/12/01 11:15:21;;;;;;;252.25;79.38;;;2.50;99.90;;;;;;5060368;28;20469;-78
2022/12/01 11:17:47;;;;;;;234.20;75.53;;;2.60;99.90;;;;;;5057679;28;20037;-79
2022/12/01 11:20:25;;;;;;;245.20;76.22;;;2.60;99.90;;;;;;5057107;28;20035;-79
2022/12/01 11:22:51;;;;;;;252.25;77.35;;;2.60;99.90;;;;;;5059537;28;20025;-79
2022/12/01 11:25:21;;;;;;;221.05;71.20;;;2.60;99.90;;;;;;5056753;28;20036;-78
2022/12/01 11:27:56;;;;;;;238.02;71.82;;;2.60;99.90;;;;;;5055570;28;20120;-78
2022/12/01 11:30:30;;;;;;;234.85;71.68;;;2.60;99.90;;;;;;5055835;28;20029;-78
2022/12/01 11:32:59;;;;;;;214.63;69.88;;;2.60;99.90;;;;;;5064913;28;20036;-79
2022/12/01 11:35:29;;;;;;;204.70;64.18;;;2.60;99.90;;;;;;5056913;28;20048;-80
2022/12/01 11:37:56;;;;;;;203.00;62.83;;;2.60;99.90;;;;;;5056975;28;20039;-79
2022/12/01 11:40:28;;;;;;;199.15;60.45;;;2.50;99.90;;;;;;5057965;28;20029;-79
2022/12/01 11:42:58;;;;;;;235.55;72.10;;;2.60;99.90;;;;;;5053703;28;20115;-78
2022/12/01 11:45:33;;;;;;;205.48;65.97;;;2.60;99.90;;;;;;5055204;28;20036;-78
2022/12/01 11:48:01;;;;;;;;;;;2.60;99.90;;;;;;5058490;28;20450;-79
2022/12/01 11:50:30;;;;;;;203.68;64.28;;;2.50;99.90;;;;;;5056548;28;19958;-78
2022/12/01 11:52:55;;;;;;;197.85;61.90;;;2.50;99.90;;;;;;5057388;28;20028;-78
2022/12/01 11:55:23;;;;;;;188.60;61.17;;;2.50;99.90;;;;;;5053553;28;20029;-78
2022/12/01 11:57:53;;;;;;;184.25;60.30;;;2.50;99.90;;;;;;5055771;28;20056;-78
2022/12/01 12:00:24;;;;;;;200.02;64.45;;;2.50;99.90;;;;;;5055040;28;20392;-78
2022/12/01 12:03:18;;;;;;;204.18;65.38;;;2.50;99.90;;;;;;5059319;28;20453;-78
2022/12/01 12:05:52;;;;;;;194.20;60.97;;;2.50;99.90;;;;;;5053996;28;20055;-78
2022/12/01 12:08:38;;;;;;;190.52;61.42;;;2.50;99.90;;;;;;5056680;28;20025;-79
2022/12/01 12:11:26;;;;;;;193.23;61.05;;;2.50;99.90;;;;;;5059582;28;20024;-79
2022/12/01 12:13:55;;;;;;;182.48;59.58;;;2.50;99.90;;;;;;5055439;28;20451;-78
2022/12/01 12:16:42;;;;;;;170.57;58.80;;;2.50;99.90;;;;;;5060876;28;20032;-78
2022/12/01 12:19:36;;;;;;;172.20;57.60;;;2.50;99.90;;;;;;5057066;28;20029;-78
2022/12/01 12:22:23;;;;;;;170.40;56.40;;;2.50;99.90;;;;;;5062194;28;20078;-79
2022/12/01 12:25:11;;;;;;;175.68;58.45;;;2.50;99.90;;;;;;5058617;28;20045;-78
2022/12/01 12:28:18;;;;;;;173.90;59.50;;;2.50;99.90;;;;;;5061600;28;20040;-78
2022/12/01 12:31:12;;;;;;;169.52;58.63;;;2.60;99.90;;;;;;5053894;28;20024;-79
2022/12/01 12:33:51;;;;;;;191.35;62.45;;;2.50;99.90;;;;;;5043203;28;20036;-79
2022/12/01 12:36:39;;;;;;;188.27;62.95;;;2.50;99.90;;;;;;5061580;28;20035;-79
2022/12/01 12:39:20;;;;;;;186.38;64.47;;;2.50;99.90;;;;;;5060628;28;20553;-79
2022/12/01 12:41:55;;;;;;;211.68;65.93;;;2.50;99.90;;;;;;5060519;28;20040;-79
2022/12/01 12:44:30;;;;;;;189.65;61.63;;;2.50;99.90;;;;;;5054668;28;20115;-79
2022/12/01 12:47:14;;;;;;;178.90;59.50;;;2.50;99.90;;;;;;5059342;28;20526;-79
2022/12/01 12:50:13;;;;;;;205.88;62.75;;;2.60;99.90;;;;;;5063122;28;20127;-79